Time;durP1;ratioP1;P1;durP2;ratioP2;P2;SDS_P1;SDS_P2;PMS_P1;PMS_P2;Temp;Humidity;BMP_temperature;BMP_pressure;BME280_temperature;BME280_humidity;BME280_pressure;Samples;Min_cycle;Max_cycle;Signal;HPM_P1;HPM_P2
2022/09/25 00:00:19;;;;;;;;;;;13.10;99.90;;;;;;5114345;28;19916;-64
2022/09/25 00:02:45;;;;;;;;;;;13.10;99.90;;;;;;5095970;28;20356;-64
2022/09/25 00:05:10;;;;;;;;;;;13.20;99.90;;;;;;5095948;28;19912;-64
2022/09/25 00:07:36;;;;;;;;;;;13.10;99.90;;;;;;5114185;28;19966;-64
2022/09/25 00:10:02;;;;;;;;;;;13.10;99.90;;;;;;5114257;28;19912;-64
2022/09/25 00:12:28;;;;;;;;;;;13.10;99.90;;;;;;5114147;28;20356;-64
2022/09/25 00:14:54;;;;;;;;;;;13.10;99.90;;;;;;5114130;28;19992;-64
2022/09/25 00:17:20;;;;;;;;;;;13.00;99.90;;;;;;5114099;28;20061;-64
2022/09/25 00:19:49;;;;;;;;;;;13.00;99.90;;;;;;5114133;28;20364;-64
2022/09/25 00:22:15;;;;;;;;;;;13.00;99.90;;;;;;5095716;28;20317;-64
2022/09/25 00:24:42;;;;;;;;;;;13.00;99.90;;;;;;5095450;28;20002;-63
2022/09/25 00:27:08;;;;;;;;;;;13.00;99.90;;;;;;5113949;28;19908;-64
2022/09/25 00:29:38;;;;;;;;;;;13.00;99.90;;;;;;5095712;28;20012;-63
2022/09/25 00:32:04;;;;;;;;;;;12.90;99.90;;;;;;5113471;28;20386;-65
2022/09/25 00:34:30;;;;;;;;;;;12.90;99.90;;;;;;5113941;28;19928;-65
2022/09/25 00:36:55;;;;;;;;;;;12.90;99.90;;;;;;5113953;28;19912;-64
2022/09/25 00:39:21;;;;;;;;;;;12.90;99.90;;;;;;5113922;28;20412;-66
2022/09/25 00:41:47;;;;;;;;;;;12.90;99.90;;;;;;5113843;28;20020;-65
2022/09/25 00:44:35;;;;;;;;;;;12.90;99.90;;;;;;5095494;28;19907;-64
2022/09/25 00:47:02;;;;;;;;;;;12.90;99.90;;;;;;5113329;28;19955;-64
2022/09/25 00:49:27;;;;;;;;;;;12.90;99.90;;;;;;5113851;28;19960;-64
2022/09/25 00:51:58;;;;;;;;;;;12.80;99.90;;;;;;5113782;28;19908;-62
2022/09/25 00:54:24;;;;;;;;;;;12.70;99.90;;;;;;5113658;28;19922;-62
2022/09/25 00:56:50;;;;;;;;;;;12.60;99.90;;;;;;5113727;28;20373;-63
2022/09/25 00:59:18;;;;;;;;;;;12.40;99.90;;;;;;5113744;28;19915;-63
2022/09/25 01:01:45;;;;;;;;;;;12.20;99.90;;;;;;5113356;28;20312;-63
2022/09/25 01:04:11;;;;;;;;;;;12.10;99.90;;;;;;5095334;28;20011;-63
2022/09/25 01:06:37;;;;;;;;;;;12.00;99.90;;;;;;5116835;28;19974;-63
2022/09/25 01:09:03;;;;;;;;;;;12.00;99.90;;;;;;5117658;28;19961;-63
2022/09/25 01:11:29;;;;;;;;;;;12.00;99.90;;;;;;5117522;28;20048;-63
2022/09/25 01:13:56;;;;;;;;;;;12.00;99.90;;;;;;5099173;28;20020;-63
2022/09/25 01:16:29;;;;;;;;;;;12.00;99.90;;;;;;5117378;28;19908;-63
2022/09/25 01:19:01;;;;;;;;;;;12.00;99.90;;;;;;5117433;28;19907;-62
2022/09/25 01:21:39;;;;;;;;;;;12.10;99.90;;;;;;5117359;28;19914;-63
2022/09/25 01:24:23;;;;;;;;;;;12.10;99.90;;;;;;5117286;28;19908;-63
2022/09/25 01:27:00;;;;;;;;;;;12.20;99.90;;;;;;5117295;28;19923;-63
2022/09/25 01:29:29;;;;;;;;;;;12.20;99.90;;;;;;5117251;28;19915;-63
2022/09/25 01:32:03;;;;;;;;;;;12.20;99.90;;;;;;5117223;28;19908;-63
2022/09/25 01:34:34;;;;;;;;;;;12.20;99.90;;;;;;5117049;28;20022;-62
2022/09/25 01:37:07;;;;;;;;;;;12.20;99.90;;;;;;5117082;28;19923;-62
2022/09/25 01:39:42;;;;;;;;;;;12.20;99.90;;;;;;5117065;28;20311;-62
2022/09/25 01:42:07;;;;;;;;;;;12.20;99.90;;;;;;5098659;28;19908;-62
2022/09/25 01:44:37;;;;;;;;;;;12.20;99.90;;;;;;5116916;28;19907;-62
2022/09/25 01:47:17;;;;;;;;;;;12.10;99.90;;;;;;5116893;28;19908;-63
2022/09/25 01:49:54;;;;;;;;;;;12.10;99.90;;;;;;5116584;28;19915;-63
2022/09/25 01:52:24;;;;;;;;;;;12.10;99.90;;;;;;5117049;28;19961;-63
2022/09/25 01:54:53;;;;;;;;;;;12.00;99.90;;;;;;5116729;28;19927;-63
2022/09/25 01:57:26;;;;;;;;;;;11.90;99.90;;;;;;5116663;28;19915;-63
2022/09/25 01:59:55;;;;;;;;;;;12.00;99.90;;;;;;5116655;28;19912;-63
2022/09/25 02:02:24;;;;;;;;;;;12.00;99.90;;;;;;5098221;28;19983;-63
2022/09/25 02:05:01;;;;;;;;;;;11.90;99.90;;;;;;5116516;28;20406;-63
2022/09/25 02:07:30;;;;;;;;;;;11.90;99.90;;;;;;5098251;28;19912;-63
2022/09/25 02:10:02;;;;;;;;;;;11.90;99.90;;;;;;5116803;28;19943;-63
2022/09/25 02:12:33;;;;;;;;;;;11.90;99.90;;;;;;5116367;28;19937;-63
2022/09/25 02:15:23;;;;;;;;;;;11.90;99.90;;;;;;5116367;28;19964;-62
2022/09/25 02:20:35;;;;;;;;;;;11.80;99.90;;;;;;5116011;28;19957;-62
2022/09/25 02:23:01;;;;;;;;;;;;;;;;;;5097820;28;19914;-63
2022/09/25 02:25:34;;;;;;;;;;;11.70;99.90;;;;;;5116093;28;20263;-63
2022/09/25 02:28:00;;;;;;;;;;;11.70;99.90;;;;;;5116438;28;19908;-63
2022/09/25 02:30:26;;;;;;;;;;;11.70;99.90;;;;;;5116073;28;19915;-63
2022/09/25 02:32:52;;;;;;;;;;;11.70;99.90;;;;;;5115536;28;19926;-63
2022/09/25 02:35:18;;;;;;;;;;;11.70;99.90;;;;;;5115865;28;19976;-63
2022/09/25 02:37:43;;;;;;;;;;;11.60;99.90;;;;;;5097591;28;20399;-63
2022/09/25 02:40:10;;;;;;;;;;;11.60;99.90;;;;;;5097591;28;20385;-62
2022/09/25 02:42:44;;;;;;;;;;;11.50;99.90;;;;;;5115812;28;19986;-62
2022/09/25 02:45:19;;;;;;;;;;;11.50;99.90;;;;;;5115707;28;19907;-62
2022/09/25 02:48:00;;;;;;;;;;;11.50;99.90;;;;;;5115659;28;19919;-63
2022/09/25 02:50:28;;;;;;;;;;;11.40;99.90;;;;;;5115688;28;19907;-62
2022/09/25 02:53:10;;;;;;;;;;;11.40;99.90;;;;;;5115167;28;20284;-62
2022/09/25 02:55:35;;;;;;;;;;;11.40;99.90;;;;;;5097232;28;20073;-64
2022/09/25 02:58:19;;;;;;;;;;;11.40;99.90;;;;;;5115476;28;19990;-64
2022/09/25 03:00:47;;;;;;;;;;;11.40;99.90;;;;;;5115812;28;20018;-64
2022/09/25 03:03:14;;;;;;;;;;;11.40;99.90;;;;;;5115344;28;19908;-62
2022/09/25 03:05:40;;;;;;;;;;;11.40;99.90;;;;;;5115353;28;19908;-62
2022/09/25 03:10:50;;;;;;;;;;;11.50;99.90;;;;;;5115271;28;19915;-63
2022/09/25 03:13:21;;;;;;;;;;;11.60;99.90;;;;;;5115157;28;19925;-63
2022/09/25 03:15:51;;;;;;;;;;;11.60;99.90;;;;;;5115216;28;19911;-63
2022/09/25 03:18:17;;;;;;;;;;;11.60;99.90;;;;;;5115135;28;19912;-63
2022/09/25 03:20:43;;;;;;;;;;;11.60;99.90;;;;;;5096791;28;20237;-63
2022/09/25 03:23:10;;;;;;;;;;;11.70;99.90;;;;;;5114680;28;20295;-63
2022/09/25 03:25:36;;;;;;;;;;;11.70;99.90;;;;;;5096586;28;19908;-63
2022/09/25 03:28:02;;;;;;;;;;;11.70;99.90;;;;;;5095880;28;19919;-63
2022/09/25 03:30:28;;;;;;;;;;;11.60;99.90;;;;;;5114899;28;19966;-63
2022/09/25 03:32:53;;;;;;;;;;;11.70;99.90;;;;;;5096379;28;20287;-63
2022/09/25 03:35:19;;;;;;;;;;;11.70;99.90;;;;;;5114758;28;19911;-63
2022/09/25 03:37:45;;;;;;;;;;;11.70;99.90;;;;;;5114732;28;19907;-63
2022/09/25 03:40:11;;;;;;;;;;;11.70;99.90;;;;;;5114780;28;20010;-63
2022/09/25 03:42:37;;;;;;;;;;;11.80;99.90;;;;;;5114624;28;20378;-63
2022/09/25 03:45:03;;;;;;;;;;;11.80;99.90;;;;;;5114598;28;19908;-63
2022/09/25 03:47:28;;;;;;;;;;;11.80;99.90;;;;;;5096253;28;19918;-63
2022/09/25 03:49:54;;;;;;;;;;;11.70;99.90;;;;;;5114844;28;19994;-63
2022/09/25 03:52:20;;;;;;;;;;;11.80;99.90;;;;;;5114467;28;19930;-63
2022/09/25 03:54:46;;;;;;;;;;;11.80;99.90;;;;;;5114382;28;19916;-62
2022/09/25 03:57:13;;;;;;;;;;;11.80;99.90;;;;;;5114720;28;19908;-63
2022/09/25 03:59:39;;;;;;;;;;;11.70;99.90;;;;;;5114029;28;20314;-63
2022/09/25 04:02:05;;;;;;;;;;;11.70;99.90;;;;;;5114425;28;19918;-63
2022/09/25 04:04:31;;;;;;;;;;;11.70;99.90;;;;;;5113994;28;19960;-63
2022/09/25 04:06:56;;;;;;;;;;;11.80;99.90;;;;;;5114268;28;19915;-63
2022/09/25 04:09:22;;;;;;;;;;;11.80;99.90;;;;;;5114500;28;20244;-63
2022/09/25 04:11:48;;;;;;;;;;;11.80;99.90;;;;;;5114218;28;19915;-63
2022/09/25 04:14:13;;;;;;;;;;;11.90;99.90;;;;;;5114215;28;19916;-62
2022/09/25 04:16:39;;;;;;;;;;;11.90;99.90;;;;;;5114138;28;19961;-63
2022/09/25 04:19:05;;;;;;;;;;;11.90;99.90;;;;;;5114079;28;19907;-63
2022/09/25 04:21:31;;;;;;;;;;;11.90;99.90;;;;;;5114107;28;20286;-63
2022/09/25 04:26:41;;;;;;;;;;;11.90;99.90;;;;;;5114101;28;19915;-63
2022/09/25 04:29:07;;;;;;;;;;;11.90;99.90;;;;;;5113707;28;19911;-63
2022/09/25 04:31:32;;;;;;;;;;;11.90;99.90;;;;;;5095760;28;20370;-63
2022/09/25 04:33:58;;;;;;;;;;;11.90;99.90;;;;;;5113381;28;20376;-63
2022/09/25 04:36:24;;;;;;;;;;;11.90;99.90;;;;;;5113923;28;19914;-63
2022/09/25 04:38:49;;;;;;;;;;;11.90;99.90;;;;;;5113867;28;20428;-63
2022/09/25 04:41:16;;;;;;;;;;;12.00;99.90;;;;;;5118211;28;20363;-63
2022/09/25 04:43:42;;;;;;;;;;;12.00;99.90;;;;;;5118073;28;19907;-62
2022/09/25 04:46:09;;;;;;;;;;;12.00;99.90;;;;;;5117977;28;19961;-63
2022/09/25 04:48:35;;;;;;;;;;;12.00;99.90;;;;;;5118045;28;19908;-63
2022/09/25 04:51:01;;;;;;;;;;;12.10;99.90;;;;;;5117985;28;20346;-63
2022/09/25 04:53:29;;;;;;;;;;;12.10;99.90;;;;;;5099492;28;20364;-63
2022/09/25 04:55:59;;;;;;;;;;;12.10;99.90;;;;;;5117833;28;19912;-63
2022/09/25 04:58:24;;;;;;;;;;;12.10;99.90;;;;;;5117834;28;19931;-64
2022/09/25 05:00:50;;;;;;;;;;;12.10;99.90;;;;;;5099564;28;19909;-63
2022/09/25 05:03:16;;;;;;;;;;;12.10;99.90;;;;;;5117718;28;20368;-63
2022/09/25 05:05:41;;;;;;;;;;;12.10;99.90;;;;;;5117639;28;19915;-63
2022/09/25 05:08:08;;;;;;;;;;;12.20;99.90;;;;;;5117530;28;19914;-63
2022/09/25 05:10:33;;;;;;;;;;;12.20;99.90;;;;;;5117901;28;19991;-63
2022/09/25 05:13:00;;;;;;;;;;;12.20;99.90;;;;;;5117430;28;20080;-63
2022/09/25 05:15:27;;;;;;;;;;;12.20;99.90;;;;;;5117774;28;19915;-63
2022/09/25 05:18:00;;;;;;;;;;;12.20;99.90;;;;;;5117383;28;19914;-63
2022/09/25 05:20:25;;;;;;;;;;;12.20;99.90;;;;;;5117301;28;19918;-63
2022/09/25 05:22:55;;;;;;;;;;;12.30;99.90;;;;;;5117366;28;19908;-63
2022/09/25 05:25:22;;;;;;;;;;;12.40;99.90;;;;;;5098997;28;20287;-62
2022/09/25 05:27:49;;;;;;;;;;;12.40;99.90;;;;;;5116972;28;20274;-62
2022/09/25 05:30:15;;;;;;;;;;;12.30;99.90;;;;;;5117136;28;19914;-62
2022/09/25 05:32:47;;;;;;;;;;;12.40;99.90;;;;;;5116786;28;19924;-62
2022/09/25 05:35:12;;;;;;;;;;;12.30;99.90;;;;;;5117087;28;20007;-62
2022/09/25 05:37:38;;;;;;;;;;;12.30;99.90;;;;;;5117384;28;19951;-63
2022/09/25 05:40:04;;;;;;;;;;;12.40;99.90;;;;;;5117304;28;19908;-63
2022/09/25 05:42:29;;;;;;;;;;;12.40;99.90;;;;;;5117191;28;19911;-62
2022/09/25 05:44:55;;;;;;;;;;;12.50;99.90;;;;;;5116908;28;19961;-62
2022/09/25 05:47:21;;;;;;;;;;;12.50;99.90;;;;;;5117191;28;19907;-63
2022/09/25 05:49:46;;;;;;;;;;;12.60;99.90;;;;;;5098400;28;20378;-63
2022/09/25 05:52:12;;;;;;;;;;;12.70;99.90;;;;;;5115700;28;19912;-64
2022/09/25 05:54:37;;;;;;;;;;;12.90;99.90;;;;;;5116630;28;19968;-64
2022/09/25 05:57:03;;;;;;;;;;;13.10;99.90;;;;;;5098159;28;19925;-65
2022/09/25 05:59:29;;;;;;;;;;;13.20;99.90;;;;;;5098177;28;20240;-64
2022/09/25 06:01:54;;;;;;;;;;;13.40;99.90;;;;;;5116604;28;19911;-64
2022/09/25 06:04:20;;;;;;;;;;;13.50;99.90;;;;;;5116792;28;20344;-64
2022/09/25 06:06:46;;;;;;;;;;;13.50;99.90;;;;;;5116472;28;20049;-65
2022/09/25 06:09:12;;;;;;;;;;;13.60;99.90;;;;;;5098082;28;20381;-65
2022/09/25 06:11:39;;;;;;;;;;;13.80;99.90;;;;;;5116786;28;19907;-64
2022/09/25 06:14:05;;;;;;;;;;;13.90;99.90;;;;;;5116321;28;19917;-64
2022/09/25 06:16:30;;;;;;;;;;;14.00;99.90;;;;;;5116393;28;19912;-65
2022/09/25 06:18:56;;;;;;;;;;;14.20;99.90;;;;;;5116272;28;19912;-64
2022/09/25 06:21:22;;;;;;;;;;;14.30;99.90;;;;;;5115817;28;19912;-64
2022/09/25 06:23:48;;;;;;;;;;;14.60;99.90;;;;;;5114836;28;19908;-64
2022/09/25 06:26:13;;;;;;;;;;;14.70;99.90;;;;;;5114765;28;19965;-64
2022/09/25 06:28:39;;;;;;;;;;;14.80;99.90;;;;;;5096356;28;20382;-64
2022/09/25 06:31:05;;;;;;;;;;;15.00;99.90;;;;;;5114703;28;19918;-64
2022/09/25 06:33:31;;;;;;;;;;;15.00;99.90;;;;;;5114242;28;19924;-64
2022/09/25 06:35:56;;;;;;;;;;;15.10;99.90;;;;;;5114536;28;19915;-63
2022/09/25 06:38:23;;;;;;;;;;;15.20;99.90;;;;;;5096395;28;19911;-63
2022/09/25 06:40:49;;;;;;;;;;;15.30;99.90;;;;;;5115795;28;19908;-64
2022/09/25 06:43:15;;;;;;;;;;;15.30;99.90;;;;;;5097485;28;20360;-63
2022/09/25 06:45:41;;;;;;;;;;;15.30;99.90;;;;;;5115729;28;20376;-64
2022/09/25 06:48:09;;;;;;;;;;;15.30;99.90;;;;;;5113480;28;19956;-66
2022/09/25 06:50:54;;;;;;;;;;;15.30;99.90;;;;;;5115185;28;19907;-65
2022/09/25 06:53:21;;;;;;;;;;;15.30;99.90;;;;;;5113966;28;19923;-66
2022/09/25 06:55:48;;;;;;;;;;;15.30;99.90;;;;;;5114940;28;19914;-65
2022/09/25 06:58:21;;;;;;;;;;;15.30;99.90;;;;;;5114449;28;19965;-65
2022/09/25 07:00:50;;;;;;;;;;;15.30;99.90;;;;;;5113762;28;19929;-65
2022/09/25 07:06:00;;;;;;;;;;;15.40;99.90;;;;;;5115062;28;20272;-68
2022/09/25 07:08:26;;;;;;;;;;;15.50;99.90;;;;;;5114935;28;19914;-66
2022/09/25 07:10:52;;;;;;;;;;;15.60;99.90;;;;;;5115329;28;19907;-65
2022/09/25 07:13:23;;;;;;;;;;;15.70;99.90;;;;;;5114255;28;19919;-66
2022/09/25 07:15:51;;;;;;;;;;;15.80;99.90;;;;;;5113849;28;20375;-67
2022/09/25 07:18:17;;;;;;;;;;;15.90;99.90;;;;;;5113270;28;19964;-71
2022/09/25 07:20:45;;;;;;;;;;;16.40;99.90;;;;;;5114833;28;19911;-70
2022/09/25 07:23:15;;;;;;;;;;;17.00;99.90;;;;;;5114749;28;19907;-68
2022/09/25 07:25:41;;;;;;;;;;;16.90;99.90;;;;;;5114770;28;19908;-67
2022/09/25 07:28:08;;;;;;;;;;;16.80;99.90;;;;;;5114463;28;19915;-68
2022/09/25 07:30:34;;;;;;;;;;;16.80;99.90;;;;;;5114241;28;20367;-70
2022/09/25 07:33:00;;;;;;;;;;;16.80;99.90;;;;;;5114883;28;19927;-69
2022/09/25 07:35:26;;;;;;;;;;;16.90;99.90;;;;;;5115682;28;19919;-66
2022/09/25 07:37:54;;;;;;;;;;;17.00;99.90;;;;;;5115341;28;19907;-66
2022/09/25 07:40:20;;;;;;;;;;;17.10;99.90;;;;;;5115568;28;19916;-64
2022/09/25 07:42:45;;;;;;;;;;;17.10;99.90;;;;;;5115637;28;20283;-64
2022/09/25 07:45:11;;;;;;;;;;;17.10;99.90;;;;;;5114931;28;20036;-64
2022/09/25 07:47:37;;;;;;;;;;;17.00;99.90;;;;;;5115138;28;19908;-63
2022/09/25 07:50:02;;;;;;;;;;;17.10;99.90;;;;;;5115176;28;20248;-64
2022/09/25 07:52:28;;;;;;;;;;;17.10;99.90;;;;;;5114568;28;19908;-66
2022/09/25 07:54:53;;;;;;;;;;;17.20;99.90;;;;;;5114150;28;20356;-63
2022/09/25 07:57:19;;;;;;;;;;;17.30;99.90;;;;;;5113936;28;19918;-64
2022/09/25 07:59:48;;;;;;;;;;;17.40;99.90;;;;;;5114516;28;19969;-64
2022/09/25 08:02:13;;;;;;;;;;;17.50;99.90;;;;;;5114109;28;19915;-65
2022/09/25 08:04:39;;;;;;;;;;;17.70;99.90;;;;;;5112702;28;19912;-65
2022/09/25 08:07:05;;;;;;;;;;;17.80;99.90;;;;;;5113679;28;19908;-65
2022/09/25 08:09:30;;;;;;;;;;;18.00;99.90;;;;;;5114051;28;19915;-65
2022/09/25 08:11:56;;;;;;;;;;;18.30;99.90;;;;;;5113686;28;19920;-65
2022/09/25 08:14:22;;;;;;;;;;;18.50;99.90;;;;;;5113066;28;20301;-65
2022/09/25 08:16:48;;;;;;;;;;;18.60;99.90;;;;;;5095825;28;19912;-65
2022/09/25 08:19:16;;;;;;;;;;;18.60;99.90;;;;;;5113806;28;19915;-66
2022/09/25 08:21:42;;;;;;;;;;;18.80;99.90;;;;;;5113816;28;19912;-64
2022/09/25 08:24:09;;;;;;;;;;;18.90;99.90;;;;;;5095760;28;19957;-68
2022/09/25 08:26:35;;;;;;;;;;;18.90;99.90;;;;;;5095720;28;19915;-67
2022/09/25 08:29:01;;;;;;;;;;;18.80;99.90;;;;;;5113010;28;20041;-66
2022/09/25 08:31:27;;;;;;;;;;;18.80;99.90;;;;;;5095618;28;19960;-65
2022/09/25 08:33:53;;;;;;;;;;;18.80;99.90;;;;;;5113018;28;19923;-66
2022/09/25 08:36:21;;;;;;;;;;;18.90;99.90;;;;;;5112805;28;21489;-67
2022/09/25 08:38:46;;;;;;;;;;;18.90;99.90;;;;;;5113845;28;19907;-65
2022/09/25 08:41:17;;;;;;;;;;;19.00;99.90;;;;;;5113894;28;19946;-66
2022/09/25 08:43:55;;;;;;;;;;;19.30;99.90;;;;;;5113880;28;19907;-66
2022/09/25 08:49:11;;;;;;;;;;;19.70;99.90;;;;;;5113857;28;20047;-66
2022/09/25 08:51:40;;;;;;;;;;;20.00;99.90;;;;;;5113759;28;19962;-66
2022/09/25 08:54:11;;;;;;;;;;;20.30;99.90;;;;;;5110703;28;19958;-68
2022/09/25 08:56:37;;;;;;;;;;;20.40;99.90;;;;;;5112864;28;20326;-66
2022/09/25 08:59:21;;;;;;;;;;;20.50;99.90;;;;;;5113578;28;19960;-66
2022/09/25 09:01:51;;;;;;;;;;;20.60;99.90;;;;;;5095224;28;19908;-66
2022/09/25 09:04:34;;;;;;;;;;;20.50;99.90;;;;;;5113239;28;19912;-67
2022/09/25 09:07:16;;;;;;;;;;;20.50;99.90;;;;;;5094113;28;19919;-66
2022/09/25 09:09:44;;;;;;;;;;;20.70;99.90;;;;;;5095265;28;19912;-67
2022/09/25 09:12:39;;;;;;;;;;;20.90;99.90;;;;;;5113378;28;19911;-66
2022/09/25 09:15:14;;;;;;;;;;;21.00;99.90;;;;;;5033248;28;19929;-70
2022/09/25 09:17:40;;;;;;;;;;;21.00;99.90;;;;;;5112433;28;20328;-67
2022/09/25 09:20:12;;;;;;;;;;;21.10;99.90;;;;;;5112620;28;20371;-67
2022/09/25 09:22:44;;;;;;;;;;;21.20;99.90;;;;;;5112851;28;19908;-67
2022/09/25 09:25:13;;;;;;;;;;;21.30;99.90;;;;;;5112905;28;19908;-68
2022/09/25 09:27:55;;;;;;;;;;;21.40;99.90;;;;;;5116236;28;20271;-69
2022/09/25 09:30:22;;;;;;;;;;;21.40;99.90;;;;;;5116679;28;19908;-65
2022/09/25 09:32:57;;;;;;;;;;;21.40;99.90;;;;;;5116332;28;19923;-63
2022/09/25 09:35:41;;;;;;;;;;;21.30;99.90;;;;;;5116719;28;19923;-66
2022/09/25 09:38:15;;;;;;;;;;;21.20;99.90;;;;;;5116682;28;19919;-65
2022/09/25 09:40:46;;;;;;;;;;;21.00;99.90;;;;;;5116483;28;19953;-64
2022/09/25 09:43:30;;;;;;;;;;;21.20;99.90;;;;;;5116338;28;19908;-71
2022/09/25 09:46:14;;;;;;;;;;;21.20;99.90;;;;;;5115728;28;19931;-66
2022/09/25 09:48:40;;;;;;;;;;;21.30;99.90;;;;;;5098023;28;19911;-66
2022/09/25 09:51:11;;;;;;;;;;;21.50;99.90;;;;;;5116427;28;20311;-65
2022/09/25 09:53:50;;;;;;;;;;;21.90;99.90;;;;;;5096994;28;19935;-67
2022/09/25 09:56:23;;;;;;;;;;;22.10;99.90;;;;;;5098023;28;19919;-67
2022/09/25 09:58:51;;;;;;;;;;;22.10;99.90;;;;;;5097702;28;20267;-69
2022/09/25 10:01:18;;;;;;;;;;;22.20;99.90;;;;;;5115992;28;19915;-69
2022/09/25 10:03:44;;;;;;;;;;;22.20;99.90;;;;;;5115821;28;19908;-69
2022/09/25 10:06:12;;;;;;;;;;;22.20;99.90;;;;;;5096169;28;19922;-64
2022/09/25 10:08:39;;;;;;;;;;;22.30;99.90;;;;;;5115632;28;19962;-69
2022/09/25 10:11:08;;;;;;;;;;;22.30;99.90;;;;;;5115574;28;19938;-68
2022/09/25 10:13:38;;;;;;;;;;;22.30;99.90;;;;;;5097136;28;19912;-68
2022/09/25 10:16:10;;;;;;;;;;;22.30;99.90;;;;;;5096390;28;19961;-67
2022/09/25 10:18:45;;;;;;;;;;;22.30;99.90;;;;;;5115327;28;19908;-66
2022/09/25 10:21:11;;;;;;;;;;;22.20;99.90;;;;;;5116262;28;20017;-66
2022/09/25 10:23:46;;;;;;;;;;;22.20;99.90;;;;;;5116234;28;19915;-65
2022/09/25 10:26:32;;;;;;;;;;;22.20;99.90;;;;;;5116169;28;19911;-66
2022/09/25 10:28:59;;;;;;;;;;;22.10;99.90;;;;;;5097799;28;19908;-66
2022/09/25 10:31:42;;;;;;;;;;;22.00;99.90;;;;;;5116044;28;19908;-66
2022/09/25 10:34:11;;;;;;;;;;;22.00;99.90;;;;;;5116126;28;19920;-66
2022/09/25 10:36:42;;;;;;;;;;;21.80;99.90;;;;;;5097199;28;19912;-66
2022/09/25 10:39:26;;;;;;;;;;;21.90;99.90;;;;;;5115890;28;19916;-68
2022/09/25 10:41:53;;;;;;;;;;;21.80;99.90;;;;;;5115748;28;20415;-69
2022/09/25 10:44:38;;;;;;;;;;;21.80;99.90;;;;;;5115096;28;20280;-69
2022/09/25 10:50:11;;;;;;;;;;;21.60;99.90;;;;;;5115412;28;19952;-68
2022/09/25 10:52:44;;;;;;;;;;;21.50;99.90;;;;;;5097382;28;19993;-69
2022/09/25 10:55:18;;;;;;;;;;;21.60;99.90;;;;;;5097324;28;20027;-67
2022/09/25 10:57:46;;;;;;;;;;;21.80;99.90;;;;;;5115585;28;20424;-69
2022/09/25 11:00:23;;;;;;;;;;;21.90;99.90;;;;;;5115251;28;19908;-67
2022/09/25 11:02:57;;;;;;;;;;;22.10;99.40;;;;;;5097130;28;19984;-67
2022/09/25 11:05:34;;;;;;;;;;;22.20;98.60;;;;;;5097149;28;20006;-69
2022/09/25 11:08:01;;;;;;;;;;;22.20;96.80;;;;;;5115363;28;20363;-68
2022/09/25 11:10:28;;;;;;;;;;;22.20;98.20;;;;;;5115279;28;19915;-68
2022/09/25 11:12:55;;;;;;;;;;;22.10;96.60;;;;;;5115185;28;19918;-68
2022/09/25 11:15:22;;;;;;;;;;;22.00;99.60;;;;;;5115282;28;19908;-68
2022/09/25 11:17:49;;;;;;;;;;;21.90;99.10;;;;;;5115164;28;19994;-68
2022/09/25 11:20:15;;;;;;;;;;;21.70;99.30;;;;;;5115143;28;19912;-68
2022/09/25 11:22:44;;;;;;;;;;;21.50;99.90;;;;;;5115039;28;19973;-68
2022/09/25 11:25:12;;;;;;;;;;;21.30;99.90;;;;;;5114778;28;19923;-68
2022/09/25 11:27:39;;;;;;;;;;;21.20;99.90;;;;;;5114972;28;19908;-68
2022/09/25 11:30:20;;;;;;;;;;;21.10;99.90;;;;;;5096391;28;19919;-67
2022/09/25 11:32:54;;;;;;;;;;;21.00;99.90;;;;;;5096106;28;20354;-68
2022/09/25 11:35:20;;;;;;;;;;;;;;;;;;5114865;28;19924;-68
2022/09/25 11:38:10;;;;;;;;;;;20.80;99.90;;;;;;5114680;28;20271;-68
2022/09/25 11:41:11;;;;;;;;;;;20.70;99.90;;;;;;5114455;28;20440;-68
2022/09/25 11:43:50;;;;;;;;;;;20.70;99.90;;;;;;5114690;28;19912;-69
2022/09/25 11:46:21;;;;;;;;;;;20.70;99.90;;;;;;5114528;28;19908;-68
2022/09/25 11:49:14;;;;;;;;;;;20.80;99.90;;;;;;5113919;28;19959;-68
2022/09/25 11:51:59;;;;;;;;;;;20.80;99.90;;;;;;5031260;28;19913;-68
2022/09/25 11:54:43;;;;;;;;;;;20.90;99.90;;;;;;5031521;28;19917;-68
2022/09/25 11:57:10;;;;;;;;;;;21.00;99.90;;;;;;5031726;28;19915;-69
2022/09/25 11:59:56;;;;;;;;;;;20.90;99.90;;;;;;5031416;28;19920;-67
2022/09/25 12:02:42;;;;;;;;;;;20.90;99.90;;;;;;5024458;28;19952;-68
2022/09/25 12:05:23;;;;;;;;;;;21.00;99.90;;;;;;5023957;28;19913;-68
2022/09/25 12:08:00;;;;;;;;;;;21.00;99.90;;;;;;5031328;28;19943;-68
2022/09/25 12:10:25;;;;;;;;;;;21.00;99.90;;;;;;5031175;28;19909;-68
2022/09/25 12:13:02;;;;;;;;;;;20.90;99.90;;;;;;5014493;28;19915;-68
2022/09/25 12:15:27;;;;;;;;;;;20.80;99.90;;;;;;5031570;28;19909;-68
2022/09/25 12:17:58;;;;;;;;;;;20.70;99.90;;;;;;5031119;28;20445;-68
2022/09/25 12:20:31;;;;;;;;;;;20.60;99.90;;;;;;5031176;28;19909;-68
2022/09/25 12:23:05;;;;;;;;;;;20.40;99.90;;;;;;5031189;28;19909;-68
2022/09/25 12:25:42;;;;;;;;;;;20.30;99.90;;;;;;5014502;28;19951;-68
2022/09/25 12:28:18;;;;;;;;;;;20.20;99.90;;;;;;5061660;28;19908;-68
2022/09/25 12:30:54;;;;;;;;;;;20.10;99.90;;;;;;5113985;28;20390;-68
2022/09/25 12:33:26;;;;;;;;;;;19.90;99.90;;;;;;5113512;28;19923;-68
2022/09/25 12:35:52;;;;;;;;;;;19.80;99.90;;;;;;5113582;28;20302;-67
2022/09/25 12:38:22;;;;;;;;;;;19.80;99.90;;;;;;5114135;28;19915;-67
2022/09/25 12:41:10;;;;;;;;;;;19.80;99.90;;;;;;5113883;28;19915;-67
2022/09/25 12:43:54;;;;;;;;;;;19.80;99.90;;;;;;5102391;28;19998;-67
2022/09/25 12:46:31;;;;;;;;;;;19.80;99.90;;;;;;5113886;28;19912;-66
2022/09/25 12:48:59;;;;;;;;;;;19.90;99.90;;;;;;5095597;28;20010;-68
2022/09/25 12:51:36;;;;;;;;;;;19.90;99.90;;;;;;5113698;28;19912;-66
2022/09/25 12:54:11;;;;;;;;;;;20.00;99.90;;;;;;5113604;28;20340;-67
2022/09/25 12:57:06;;;;;;;;;;;20.00;99.90;;;;;;5113779;28;20310;-67
2022/09/25 12:59:39;;;;;;;;;;;20.10;99.90;;;;;;5095242;28;19908;-68
2022/09/25 13:02:24;;;;;;;;;;;20.20;99.90;;;;;;5117703;28;19973;-67
2022/09/25 13:04:56;;;;;;;;;;;20.30;99.90;;;;;;5117496;28;19912;-67
2022/09/25 13:07:31;;;;;;;;;;;20.50;99.90;;;;;;5117372;28;20436;-67
2022/09/25 13:09:57;;;;;;;;;;;20.70;99.90;;;;;;5099276;28;20354;-67
2022/09/25 13:12:23;;;;;;;;;;;20.80;99.90;;;;;;5117583;28;19908;-68
2022/09/25 13:14:58;;;;;;;;;;;20.90;99.90;;;;;;5117523;28;19916;-67
2022/09/25 13:17:24;;;;;;;;;;;21.00;99.90;;;;;;5116504;28;19908;-68
2022/09/25 13:19:49;;;;;;;;;;;21.00;99.90;;;;;;5117323;28;19912;-68
2022/09/25 13:22:24;;;;;;;;;;;21.00;99.90;;;;;;5117366;28;19964;-68
2022/09/25 13:24:51;;;;;;;;;;;20.90;99.90;;;;;;5117399;28;20275;-68
2022/09/25 13:27:21;;;;;;;;;;;20.80;99.90;;;;;;5117282;28;19915;-68
2022/09/25 13:29:52;;;;;;;;;;;20.70;99.90;;;;;;5117182;28;19911;-67
2022/09/25 13:32:19;;;;;;;;;;;20.60;99.90;;;;;;5116683;28;19974;-68
2022/09/25 13:34:45;;;;;;;;;;;20.50;99.90;;;;;;5117108;28;19915;-69
2022/09/25 13:37:13;;;;;;;;;;;20.50;99.90;;;;;;5116796;28;19908;-67
2022/09/25 13:42:28;;;;;;;;;;;20.30;99.90;;;;;;5117118;28;19946;-68
2022/09/25 13:45:13;;;;;;;;;;;20.20;99.90;;;;;;5117028;28;20022;-68
2022/09/25 13:47:42;;;;;;;;;;;20.10;99.90;;;;;;5116948;28;19918;-68
2022/09/25 13:50:11;;;;;;;;;;;20.00;99.90;;;;;;5116847;28;19916;-68
2022/09/25 13:52:37;;;;;;;;;;;20.00;99.90;;;;;;5116732;28;19908;-68
2022/09/25 13:55:12;;;;;;;;;;;20.00;99.90;;;;;;5116609;28;19968;-68
2022/09/25 13:57:59;;;;;;;;;;;19.90;99.90;;;;;;5116546;28;19912;-68
2022/09/25 14:00:25;;;;;;;;;;;19.90;99.90;;;;;;5116621;28;20402;-68
2022/09/25 14:03:01;;;;;;;;;;;19.90;99.90;;;;;;5098234;28;19961;-68
2022/09/25 14:05:40;;;;;;;;;;;19.80;99.90;;;;;;5116507;28;19915;-67
2022/09/25 14:08:12;;;;;;;;;;;19.80;99.90;;;;;;5116495;28;19908;-67
2022/09/25 14:10:42;;;;;;;;;;;19.80;99.90;;;;;;5116359;28;19912;-68
2022/09/25 14:13:11;;;;;;;;;;;19.70;99.90;;;;;;5115314;28;20311;-68
2022/09/25 14:15:39;;;;;;;;;;;19.60;99.90;;;;;;5116225;28;19907;-68
2022/09/25 14:18:07;;;;;;;;;;;19.60;99.90;;;;;;5116253;28;20339;-68
2022/09/25 14:20:38;;;;;;;;;;;19.50;99.90;;;;;;5116275;28;19912;-68
2022/09/25 14:23:12;;;;;;;;;;;19.50;99.90;;;;;;5116145;28;19908;-67
2022/09/25 14:25:41;;;;;;;;;;;19.50;99.90;;;;;;5116254;28;19908;-68
2022/09/25 14:28:17;;;;;;;;;;;19.40;99.90;;;;;;5116092;28;20416;-67
2022/09/25 14:31:06;;;;;;;;;;;19.40;99.90;;;;;;5116076;28;19908;-67
2022/09/25 14:33:34;;;;;;;;;;;19.30;99.90;;;;;;5056117;28;20015;-68
2022/09/25 14:36:21;;;;;;;;;;;19.30;99.90;;;;;;5095698;28;19908;-68
2022/09/25 14:38:56;;;;;;;;;;;19.30;99.90;;;;;;5095555;28;19908;-68
2022/09/25 14:41:27;;;;;;;;;;;19.20;99.90;;;;;;5095436;28;19914;-68
2022/09/25 14:44:16;;;;;;;;;;;19.20;99.90;;;;;;5095427;28;19912;-68
2022/09/25 14:46:43;;;;;;;;;;;19.30;99.90;;;;;;5095483;28;20002;-68
2022/09/25 14:49:28;;;;;;;;;;;19.20;99.90;;;;;;5095399;28;20360;-67
2022/09/25 14:51:57;;;;;;;;;;;19.20;99.90;;;;;;5095094;28;20409;-68
2022/09/25 14:54:24;;;;;;;;;;;19.10;99.90;;;;;;5095182;28;20013;-67